Time;durP1;ratioP1;P1;durP2;ratioP2;P2;SDS_P1;SDS_P2;PMS_P1;PMS_P2;Temp;Humidity;BMP_temperature;BMP_pressure;BME280_temperature;BME280_humidity;BME280_pressure;Samples;Min_cycle;Max_cycle;Signal;HPM_P1;HPM_P2
2022/01/14 00:00:43;;;;;;;;;;;;;;;;;;;;;
2022/01/14 00:03:11;;;;;;;144.38;44.90;;;5.70;99.90;;;;;;5026136;28;20044;-93
2022/01/14 00:05:40;;;;;;;140.77;43.67;;;5.70;99.90;;;;;;5006531;28;20047;-90
2022/01/14 00:08:19;;;;;;;148.15;43.35;;;5.80;99.90;;;;;;4990990;28;20337;-92
2022/01/14 00:10:57;;;;;;;138.45;41.58;;;5.70;99.90;;;;;;4984728;28;20088;-93
2022/01/14 00:16:18;;;;;;;145.25;44.30;;;5.80;99.90;;;;;;5011784;28;20364;-94
2022/01/14 00:18:59;;;;;;;135.93;42.88;;;5.80;99.90;;;;;;4999797;28;20071;-95
2022/01/14 00:21:42;;;;;;;145.65;44.63;;;5.80;99.90;;;;;;5003738;28;20051;-94
2022/01/14 00:33:20;;;;;;;;;;;;;;;;;;;;;
2022/01/14 00:36:53;;;;;;;;;;;;;;;;;;;;;
2022/01/14 00:39:34;;;;;;;145.52;43.60;;;5.90;99.90;;;;;;5023118;27;20218;-92
2022/01/14 00:42:01;;;;;;;135.10;44.47;;;5.80;99.90;;;;;;5010408;28;20603;-92
2022/01/14 00:44:37;;;;;;;140.82;42.75;;;5.80;99.90;;;;;;5025390;28;20281;-94
2022/01/14 00:51:39;;;;;;;150.77;43.15;;;5.90;99.90;;;;;;5056774;27;20062;-94
2022/01/14 00:54:16;;;;;;;160.45;45.33;;;5.90;99.90;;;;;;5011125;27;20047;-92
2022/01/14 00:59:48;;;;;;;146.30;43.67;;;5.90;99.90;;;;;;5014052;27;20047;-95
2022/01/14 01:02:29;;;;;;;;;;;;;;;;;;;;;
2022/01/14 01:05:16;;;;;;;156.90;45.15;;;5.90;99.90;;;;;;5055162;27;20046;-93
2022/01/14 01:07:45;;;;;;;144.07;45.75;;;5.90;99.90;;;;;;5001970;28;20058;-92
2022/01/14 01:10:16;;;;;;;155.63;47.30;;;5.90;99.90;;;;;;5015355;28;20043;-94
2022/01/14 01:12:51;;;;;;;134.93;45.85;;;6.00;99.90;;;;;;5013114;28;20956;-92
2022/01/14 01:15:17;;;;;;;139.77;46.65;;;5.90;99.90;;;;;;4980748;28;20440;-93
2022/01/14 01:17:45;;;;;;;135.63;45.20;;;6.00;99.90;;;;;;5006129;27;20083;-92
2022/01/14 01:20:14;;;;;;;137.45;45.08;;;6.00;99.90;;;;;;5009226;28;20417;-92
2022/01/14 01:22:48;;;;;;;138.20;43.67;;;6.00;99.90;;;;;;5011012;28;20247;-91
2022/01/14 01:25:18;;;;;;;120.90;40.85;;;6.00;99.90;;;;;;5004936;28;20096;-92
2022/01/14 01:27:47;;;;;;;122.63;41.78;;;6.00;99.90;;;;;;5008766;28;20702;-89
2022/01/14 01:30:16;;;;;;;124.95;41.80;;;6.00;99.90;;;;;;5001858;28;20354;-92
2022/01/14 01:35:46;;;;;;;121.78;41.67;;;6.00;99.90;;;;;;5029515;28;20040;-91
2022/01/14 01:38:21;;;;;;;127.93;42.58;;;6.10;99.90;;;;;;5012817;28;20387;-93
2022/01/14 01:40:48;;;;;;;137.02;43.15;;;6.10;99.90;;;;;;5007320;28;20090;-92
2022/01/14 01:43:21;;;;;;;126.22;42.95;;;6.10;99.90;;;;;;5006068;28;20043;-90
2022/01/14 01:45:50;;;;;;;118.40;41.05;;;6.10;99.90;;;;;;5005914;28;20052;-91
2022/01/14 01:48:17;;;;;;;123.47;42.38;;;6.10;99.90;;;;;;5003151;28;20497;-90
2022/01/14 01:50:49;;;;;;;125.75;43.30;;;6.10;99.90;;;;;;5002729;28;20063;-92
2022/01/14 01:53:21;;;;;;;125.45;42.20;;;6.10;99.90;;;;;;4988426;28;20147;-93
2022/01/14 01:55:56;;;;;;;127.72;42.67;;;6.10;99.90;;;;;;5002919;28;20156;-93
2022/01/14 01:58:25;;;;;;;121.93;44.80;;;6.10;99.90;;;;;;4972880;28;20358;-91
2022/01/14 02:00:59;;;;;;;119.90;43.85;;;6.10;99.90;;;;;;5003632;28;20048;-92
2022/01/14 02:03:28;;;;;;;115.63;42.97;;;6.10;99.90;;;;;;5011651;28;20585;-93
2022/01/14 02:06:21;;;;;;;120.93;43.75;;;6.10;99.90;;;;;;5019071;28;20152;-92
2022/01/14 02:10:01;;;;;;;;;;;;;;;;;;;;;
2022/01/14 02:13:09;;;;;;;127.40;43.65;;;6.10;99.90;;;;;;4955797;28;20526;-94
2022/01/14 02:27:04;;;;;;;122.68;41.45;;;6.20;99.90;;;;;;5019567;28;20059;-90
2022/01/14 02:29:33;;;;;;;122.25;42.03;;;6.20;99.90;;;;;;5004286;28;20064;-91
2022/01/14 02:32:14;;;;;;;117.80;41.60;;;6.10;99.90;;;;;;5002030;28;20360;-90
2022/01/14 02:34:45;;;;;;;116.18;40.95;;;6.20;99.90;;;;;;5013596;28;20067;-95
2022/01/14 02:37:11;;;;;;;119.25;40.95;;;6.10;99.90;;;;;;4992427;28;20040;-93
2022/01/14 02:39:38;;;;;;;121.72;40.80;;;6.10;99.90;;;;;;5008398;28;20720;-92
2022/01/14 02:42:10;;;;;;;120.68;41.42;;;6.10;99.90;;;;;;4996510;28;20051;-93
2022/01/14 02:44:37;;;;;;;118.70;39.80;;;6.20;99.90;;;;;;5035947;28;20071;-92
2022/01/14 02:47:07;;;;;;;113.38;40.47;;;6.10;99.90;;;;;;5013400;28;20348;-91
2022/01/14 02:49:36;;;;;;;111.10;40.45;;;6.10;99.90;;;;;;5010086;27;20047;-93
2022/01/14 02:52:09;;;;;;;114.50;39.97;;;6.20;99.90;;;;;;5012807;27;20051;-92
2022/01/14 02:55:02;;;;;;;103.13;38.78;;;6.20;99.90;;;;;;5006448;28;20506;-92
2022/01/14 02:57:30;;;;;;;105.78;39.85;;;6.20;99.90;;;;;;5028086;28;20043;-90
2022/01/14 03:00:01;;;;;;;111.30;39.33;;;6.30;99.90;;;;;;5032165;28;20158;-91
2022/01/14 03:02:32;;;;;;;107.70;40.17;;;6.20;99.90;;;;;;5008547;27;20412;-93
2022/01/14 03:04:58;;;;;;;105.28;39.35;;;6.20;99.90;;;;;;4999424;28;20782;-90
2022/01/14 03:07:27;;;;;;;110.70;40.65;;;6.20;99.90;;;;;;5009314;28;20482;-93
2022/01/14 03:09:53;;;;;;;116.15;42.47;;;6.20;99.90;;;;;;5012291;27;20047;-93
2022/01/14 03:12:25;;;;;;;107.13;40.95;;;6.20;99.90;;;;;;5016719;27;20388;-90
2022/01/14 03:14:53;;;;;;;114.43;40.58;;;6.20;99.90;;;;;;5012951;28;21042;-94
2022/01/14 03:17:21;;;;;;;116.38;40.83;;;6.20;99.90;;;;;;5001061;27;20375;-93
2022/01/14 03:20:36;;;;;;;111.28;39.78;;;6.20;99.90;;;;;;5012700;28;20976;-95
2022/01/14 03:26:38;;;;;;;122.43;40.90;;;6.20;99.90;;;;;;5034125;28;20126;-94
2022/01/14 03:29:04;;;;;;;109.65;40.03;;;6.20;99.90;;;;;;5019113;28;20036;-94
2022/01/14 03:32:10;;;;;;;114.28;40.10;;;6.20;99.90;;;;;;5037994;28;20227;-93
2022/01/14 03:34:36;;;;;;;119.00;41.33;;;6.20;99.90;;;;;;5011037;27;20339;-94
2022/01/14 03:37:08;;;;;;;114.15;40.20;;;6.20;99.90;;;;;;5013815;28;20443;-94
2022/01/14 03:39:37;;;;;;;102.85;39.63;;;6.20;99.90;;;;;;5006289;28;20346;-94
2022/01/14 03:42:09;;;;;;;116.75;39.92;;;6.20;99.90;;;;;;4999059;28;20619;-94
2022/01/14 03:44:38;;;;;;;114.60;42.45;;;6.20;99.90;;;;;;4994351;28;20058;-95
2022/01/14 03:47:06;;;;;;;115.72;40.15;;;6.20;99.90;;;;;;5017487;27;20035;-93
2022/01/14 03:49:40;;;;;;;118.60;40.55;;;6.20;99.90;;;;;;5011156;27;20563;-95
2022/01/14 03:52:09;;;;;;;108.53;40.28;;;6.20;99.90;;;;;;5017915;28;20054;-95
2022/01/14 03:54:35;;;;;;;115.28;41.30;;;6.10;99.90;;;;;;5001739;28;20599;-92
2022/01/14 03:57:03;;;;;;;107.15;40.22;;;6.20;99.90;;;;;;5013710;27;20044;-93
2022/01/14 03:59:37;;;;;;;116.68;38.88;;;6.20;99.90;;;;;;4994683;27;20039;-94
2022/01/14 04:02:09;;;;;;;;;;;6.30;99.90;;;;;;5012742;28;20096;-94
2022/01/14 04:04:38;;;;;;;99.25;39.42;;;6.20;99.90;;;;;;5018669;28;19928;-93
2022/01/14 04:07:19;;;;;;;101.57;39.40;;;6.20;99.90;;;;;;5015821;28;20081;-95
2022/01/14 04:09:50;;;;;;;91.50;38.22;;;6.20;99.90;;;;;;5016224;28;20444;-92
2022/01/14 04:12:33;;;;;;;94.05;38.35;;;6.30;99.90;;;;;;4994523;27;20054;-93
2022/01/14 04:17:28;;;;;;;107.63;40.85;;;6.30;99.90;;;;;;5026643;28;20162;-91
2022/01/14 04:19:57;;;;;;;96.75;39.40;;;6.30;99.90;;;;;;4984153;27;20577;-90
2022/01/14 04:22:32;;;;;;;91.70;38.40;;;6.30;99.90;;;;;;5005656;28;21886;-94
2022/01/14 04:25:07;;;;;;;96.68;38.22;;;6.30;99.90;;;;;;5004909;28;20050;-93
2022/01/14 04:27:33;;;;;;;96.32;37.63;;;6.30;99.90;;;;;;5013475;28;20523;-89
2022/01/14 04:29:59;;;;;;;100.00;39.67;;;6.40;99.90;;;;;;5000392;27;20085;-92
2022/01/14 04:32:37;;;;;;;100.25;39.20;;;6.30;99.90;;;;;;5017414;27;20185;-94
2022/01/14 04:35:06;;;;;;;98.50;38.00;;;6.30;99.90;;;;;;5027030;27;20150;-91
2022/01/14 04:37:32;;;;;;;95.03;39.35;;;6.30;99.90;;;;;;5012472;28;20051;-92
2022/01/14 04:40:01;;;;;;;87.50;37.92;;;6.30;99.90;;;;;;5005969;28;20416;-91
2022/01/14 04:42:28;;;;;;;89.07;36.65;;;6.30;99.90;;;;;;5006713;28;20130;-92
2022/01/14 04:44:55;;;;;;;93.80;37.70;;;6.30;99.90;;;;;;5007890;28;20043;-91
2022/01/14 04:47:43;;;;;;;86.00;37.10;;;6.30;99.90;;;;;;5005460;28;20043;-92
2022/01/14 04:50:15;;;;;;;91.38;38.08;;;6.30;99.90;;;;;;5005661;28;20040;-92
2022/01/14 04:52:46;;;;;;;90.90;38.30;;;6.30;99.90;;;;;;5011458;28;20385;-93
2022/01/14 04:55:14;;;;;;;88.15;38.60;;;6.30;99.90;;;;;;5006587;28;20332;-90
2022/01/14 04:57:41;;;;;;;93.82;38.08;;;6.30;99.90;;;;;;4994898;28;20792;-92
2022/01/14 05:00:13;;;;;;;96.78;38.78;;;6.30;99.90;;;;;;5004202;28;20135;-92
2022/01/14 05:02:39;;;;;;;100.07;39.20;;;6.30;99.90;;;;;;5006338;28;20058;-92
2022/01/14 05:05:07;;;;;;;92.95;38.05;;;6.30;99.90;;;;;;4998419;27;20317;-94
2022/01/14 05:07:34;;;;;;;96.30;39.45;;;6.30;99.90;;;;;;5005404;28;20085;-91
2022/01/14 05:12:41;;;;;;;96.43;38.42;;;6.20;99.90;;;;;;5028094;28;20079;-89
2022/01/14 05:15:10;;;;;;;98.60;39.35;;;6.30;99.90;;;;;;4996725;28;20348;-92
2022/01/14 05:17:39;;;;;;;102.72;38.92;;;6.30;99.90;;;;;;4994873;28;20072;-91
2022/01/14 05:20:06;;;;;;;104.93;39.63;;;6.30;99.90;;;;;;5002194;28;20040;-91
2022/01/14 05:22:32;;;;;;;101.35;36.72;;;6.20;99.90;;;;;;4998317;28;20043;-90
2022/01/14 05:24:58;;;;;;;93.25;37.00;;;6.30;99.90;;;;;;5004827;27;20043;-90
2022/01/14 05:27:27;;;;;;;94.63;36.95;;;6.20;99.90;;;;;;4992693;27;21737;-91
2022/01/14 05:29:53;;;;;;;98.15;36.90;;;6.20;99.90;;;;;;5006281;28;20122;-91
2022/01/14 05:32:20;;;;;;;101.43;37.45;;;6.20;99.90;;;;;;4997025;27;20539;-93
2022/01/14 05:34:52;;;;;;;94.97;36.33;;;6.20;99.90;;;;;;5009365;28;20628;-90
2022/01/14 05:37:21;;;;;;;96.10;37.30;;;6.20;99.90;;;;;;5026850;28;20526;-92
2022/01/14 05:39:47;;;;;;;96.47;38.42;;;6.20;99.90;;;;;;5000456;28;20187;-91
2022/01/14 05:42:21;;;;;;;98.07;36.22;;;6.20;99.90;;;;;;4991353;28;20166;-94
2022/01/14 05:44:47;;;;;;;96.25;36.75;;;6.10;99.90;;;;;;5025034;28;20229;-90
2022/01/14 05:47:13;;;;;;;99.32;37.15;;;6.10;99.90;;;;;;4973880;28;20109;-90
2022/01/14 05:49:40;;;;;;;97.38;35.33;;;6.20;99.90;;;;;;4990325;28;20499;-90
2022/01/14 05:52:06;;;;;;;87.30;35.90;;;6.20;99.90;;;;;;4990890;28;20047;-90
2022/01/14 05:54:35;;;;;;;95.85;36.95;;;6.20;99.90;;;;;;4989193;28;20368;-91
2022/01/14 05:57:01;;;;;;;84.28;34.38;;;6.20;99.90;;;;;;4991528;28;21351;-92
2022/01/14 05:59:27;;;;;;;86.35;35.47;;;6.10;99.90;;;;;;4990472;28;20039;-92
2022/01/14 06:01:56;;;;;;;87.65;35.13;;;6.10;99.90;;;;;;4984681;28;20079;-90
2022/01/14 06:04:25;;;;;;;87.43;35.50;;;6.10;99.90;;;;;;4985842;28;20623;-92
2022/01/14 06:06:54;;;;;;;88.63;34.78;;;6.10;99.90;;;;;;4997339;28;20040;-92
2022/01/14 06:09:20;;;;;;;85.78;35.05;;;6.10;99.90;;;;;;4999210;28;20290;-94
2022/01/14 06:11:51;;;;;;;80.00;34.35;;;6.10;99.90;;;;;;4981812;28;20447;-93
2022/01/14 06:14:17;;;;;;;81.20;35.10;;;6.10;99.90;;;;;;5004505;28;20402;-90
2022/01/14 06:16:45;;;;;;;85.45;35.22;;;6.10;99.90;;;;;;5002915;28;20408;-91
2022/01/14 06:19:12;;;;;;;87.72;35.50;;;6.10;99.90;;;;;;4997937;28;20485;-93
2022/01/14 06:21:40;;;;;;;87.93;35.58;;;6.10;99.90;;;;;;4991071;28;20601;-95
2022/01/14 06:24:06;;;;;;;82.20;36.40;;;6.10;99.90;;;;;;5000658;27;20046;-93
2022/01/14 06:26:33;;;;;;;86.53;35.83;;;6.00;99.90;;;;;;4981131;27;20115;-91
2022/01/14 06:29:04;;;;;;;71.82;33.72;;;6.10;99.90;;;;;;4995790;28;20043;-90
2022/01/14 06:31:36;;;;;;;80.00;35.60;;;6.10;99.90;;;;;;5003940;28;20055;-95
2022/01/14 06:34:02;;;;;;;80.80;34.90;;;6.10;99.90;;;;;;5001799;28;20070;-93
2022/01/14 06:36:37;;;;;;;78.40;35.78;;;6.20;99.90;;;;;;5008385;28;20758;-94
2022/01/14 06:39:10;;;;;;;82.00;35.72;;;6.10;99.90;;;;;;5013985;27;20612;-93
2022/01/14 06:41:44;;;;;;;75.43;34.40;;;6.20;99.90;;;;;;5004711;28;20068;-93
2022/01/14 06:44:20;;;;;;;70.13;33.28;;;6.20;99.90;;;;;;4992054;28;20044;-92
2022/01/14 06:46:48;;;;;;;73.95;32.80;;;6.20;99.90;;;;;;4994275;28;20254;-91
2022/01/14 06:49:14;;;;;;;69.22;33.30;;;6.20;99.90;;;;;;4992836;28;20097;-93
2022/01/14 06:51:40;;;;;;;74.22;33.63;;;6.20;99.90;;;;;;5009684;28;20047;-92
2022/01/14 06:54:09;;;;;;;71.40;33.38;;;6.20;99.90;;;;;;4988842;28;20051;-92
2022/01/14 06:56:38;;;;;;;70.72;34.58;;;6.20;99.90;;;;;;5005021;28;20135;-92
2022/01/14 06:59:24;;;;;;;74.65;34.28;;;6.20;99.90;;;;;;4980778;28;20544;-90
2022/01/14 07:01:50;;;;;;;71.10;33.40;;;6.20;99.90;;;;;;4993277;28;20512;-92
2022/01/14 07:04:16;;;;;;;70.80;32.75;;;6.20;99.90;;;;;;4984940;28;20097;-93
2022/01/14 07:06:42;;;;;;;76.82;33.53;;;6.20;99.90;;;;;;4993568;28;20721;-94
2022/01/14 07:09:30;;;;;;;72.05;32.78;;;6.20;99.90;;;;;;5009863;28;20039;-93
2022/01/14 07:12:00;;;;;;;74.20;34.25;;;6.20;99.90;;;;;;5013434;28;20079;-92
2022/01/14 07:14:33;;;;;;;73.93;33.60;;;6.20;99.90;;;;;;5001473;28;20478;-94
2022/01/14 07:16:59;;;;;;;70.00;33.83;;;6.20;99.90;;;;;;5008466;28;20372;-91
2022/01/14 07:19:26;;;;;;;69.80;33.92;;;6.20;99.90;;;;;;4996262;28;20446;-93
2022/01/14 07:21:55;;;;;;;69.28;34.22;;;6.20;99.90;;;;;;5008491;28;20047;-92
2022/01/14 07:24:39;;;;;;;76.15;35.22;;;6.20;99.90;;;;;;5010767;28;20131;-95
2022/01/14 07:27:38;;;;;;;71.78;33.63;;;6.20;99.90;;;;;;5019785;28;20454;-93
2022/01/14 07:30:05;;;;;;;69.20;35.33;;;6.20;99.90;;;;;;5010698;28;20563;-94
2022/01/14 07:32:34;;;;;;;72.35;35.33;;;6.20;99.90;;;;;;5032203;28;20044;-91
2022/01/14 07:41:43;;;;;;;69.43;36.58;;;6.20;99.90;;;;;;4989141;28;20057;-92
2022/01/14 07:44:09;;;;;;;70.68;35.58;;;6.20;99.90;;;;;;4958279;28;20045;-90
2022/01/14 07:46:36;;;;;;;71.10;34.38;;;6.20;99.90;;;;;;4933593;28;20251;-90
2022/01/14 07:49:03;;;;;;;71.03;35.80;;;6.20;99.90;;;;;;4942940;28;20049;-88
2022/01/14 07:51:32;;;;;;;73.63;36.35;;;6.20;99.90;;;;;;4940639;28;20095;-91
2022/01/14 07:54:05;;;;;;;70.07;35.28;;;6.20;99.90;;;;;;4955358;28;20517;-91
2022/01/14 07:56:52;;;;;;;71.47;35.00;;;6.20;99.90;;;;;;4969025;28;20267;-93
2022/01/14 07:59:23;;;;;;;70.40;34.60;;;6.20;99.90;;;;;;4957125;28;20041;-93
2022/01/14 08:01:55;;;;;;;70.07;35.03;;;6.20;99.90;;;;;;4933987;28;20041;-92
2022/01/14 08:04:21;;;;;;;68.15;35.22;;;6.20;99.90;;;;;;4985627;28;20302;-92
2022/01/14 08:06:50;;;;;;;67.35;35.53;;;6.20;99.90;;;;;;4971336;28;20085;-92
2022/01/14 08:09:20;;;;;;;66.97;35.28;;;6.20;99.90;;;;;;5005125;28;20263;-92
2022/01/14 08:11:46;;;;;;;65.80;34.75;;;6.20;99.90;;;;;;5008237;28;20188;-90
2022/01/14 08:14:17;;;;;;;64.38;35.38;;;6.20;99.90;;;;;;5005445;28;20052;-93
2022/01/14 08:16:43;;;;;;;62.63;35.13;;;6.20;99.90;;;;;;4991447;28;20470;-93
2022/01/14 08:19:11;;;;;;;61.40;34.85;;;6.20;99.90;;;;;;4995297;28;20048;-94
2022/01/14 08:21:40;;;;;;;65.50;34.28;;;6.20;99.90;;;;;;4989215;28;20052;-94
2022/01/14 08:24:11;;;;;;;61.90;34.08;;;6.20;99.90;;;;;;5002641;28;20052;-93
2022/01/14 08:27:22;;;;;;;64.70;34.40;;;6.20;99.90;;;;;;4992674;28;20052;-96
2022/01/14 08:30:11;;;;;;;62.17;34.03;;;6.30;99.90;;;;;;5013184;28;20759;-94
2022/01/14 08:32:37;;;;;;;59.65;34.10;;;6.30;99.90;;;;;;4989046;28;20048;-94
2022/01/14 08:35:25;;;;;;;57.70;33.95;;;6.30;99.90;;;;;;5030173;28;20056;-96
2022/01/14 08:37:56;;;;;;;63.17;34.22;;;6.30;99.90;;;;;;5002185;28;20059;-94
2022/01/14 08:40:24;;;;;;;60.08;32.65;;;6.40;99.90;;;;;;5017179;28;20055;-95
2022/01/14 08:42:55;;;;;;;56.28;31.95;;;6.40;99.90;;;;;;4999270;28;20473;-94
2022/01/14 08:45:21;;;;;;;54.15;31.35;;;6.40;99.90;;;;;;5009190;28;20343;-93
2022/01/14 08:47:53;;;;;;;53.15;31.73;;;6.40;99.90;;;;;;5014872;28;20067;-95
2022/01/14 08:50:52;;;;;;;51.80;32.17;;;6.40;99.90;;;;;;5020740;28;20047;-96
2022/01/14 08:53:30;;;;;;;49.45;31.17;;;6.40;99.90;;;;;;5014238;28;20796;-93
2022/01/14 08:55:56;;;;;;;50.65;32.50;;;6.50;99.90;;;;;;5008597;28;20283;-92
2022/01/14 08:58:23;;;;;;;49.50;31.27;;;6.50;99.90;;;;;;4991727;28;20521;-92
2022/01/14 09:00:49;;;;;;;46.63;30.55;;;6.50;99.90;;;;;;5012426;28;20074;-93
2022/01/14 09:06:07;;;;;;;49.75;31.75;;;6.50;99.90;;;;;;4976974;28;20044;-94
2022/01/14 09:09:03;;;;;;;50.65;30.70;;;6.60;99.90;;;;;;4947769;28;20436;-95
2022/01/14 09:11:52;;;;;;;47.42;29.35;;;6.70;99.90;;;;;;4976056;28;20055;-95
2022/01/14 09:14:18;;;;;;;48.90;30.00;;;6.70;99.90;;;;;;4950089;28;20131;-94
2022/01/14 09:16:45;;;;;;;50.90;30.38;;;6.60;99.90;;;;;;4962353;28;20424;-94
2022/01/14 09:19:11;;;;;;;49.72;30.83;;;6.70;99.90;;;;;;4999960;28;20876;-93
2022/01/14 09:21:37;;;;;;;46.35;30.65;;;6.70;99.90;;;;;;5027262;28;20060;-92
2022/01/14 09:24:09;;;;;;;43.85;29.23;;;6.70;99.90;;;;;;5008621;28;20660;-93
2022/01/14 09:26:36;;;;;;;45.50;30.63;;;6.70;99.90;;;;;;4980801;28;20156;-90
2022/01/14 09:29:07;;;;;;;46.47;29.65;;;6.70;99.90;;;;;;5002724;28;20052;-92
2022/01/14 09:31:36;;;;;;;53.33;31.17;;;6.70;99.90;;;;;;4992241;28;20525;-92
2022/01/14 09:34:06;;;;;;;45.33;29.52;;;6.80;99.90;;;;;;4986509;28;20040;-93
2022/01/14 09:36:33;;;;;;;44.95;29.35;;;6.80;99.90;;;;;;4995555;28;20564;-93
2022/01/14 09:39:09;;;;;;;45.03;28.92;;;6.80;99.90;;;;;;5006355;28;20040;-93
2022/01/14 09:41:35;;;;;;;49.53;28.92;;;6.80;99.90;;;;;;5010462;28;20157;-94
2022/01/14 09:44:14;;;;;;;44.85;29.40;;;6.90;99.90;;;;;;4993556;28;20488;-93
2022/01/14 09:46:43;;;;;;;45.85;29.08;;;6.90;99.90;;;;;;5001259;28;20059;-92
2022/01/14 09:49:13;;;;;;;45.80;28.80;;;6.90;99.90;;;;;;5011309;28;20048;-92
2022/01/14 09:51:39;;;;;;;42.55;27.58;;;6.90;99.90;;;;;;4988916;28;20080;-91
2022/01/14 09:54:10;;;;;;;42.85;27.42;;;6.90;99.90;;;;;;4971837;28;20044;-91
2022/01/14 09:56:38;;;;;;;42.53;27.77;;;7.00;99.90;;;;;;5028218;28;20797;-94
2022/01/14 09:59:18;;;;;;;48.97;27.13;;;7.00;99.90;;;;;;5009105;28;20082;-92
2022/01/14 10:01:50;;;;;;;44.83;26.55;;;7.00;99.90;;;;;;5004816;28;20072;-90
2022/01/14 10:04:21;;;;;;;42.90;26.35;;;7.10;99.90;;;;;;4999779;28;20761;-91
2022/01/14 10:06:49;;;;;;;39.22;26.40;;;7.10;99.90;;;;;;5023425;28;20573;-91
2022/01/14 10:09:23;;;;;;;41.97;26.58;;;7.20;99.90;;;;;;5013586;28;21044;-94
2022/01/14 10:12:13;;;;;;;37.83;26.00;;;7.20;99.90;;;;;;5008704;28;20234;-93
2022/01/14 10:14:45;;;;;;;41.40;26.40;;;7.30;99.90;;;;;;5007388;28;20044;-91
2022/01/14 10:17:11;;;;;;;40.17;25.15;;;7.30;99.90;;;;;;5013411;28;20047;-94
2022/01/14 10:19:40;;;;;;;37.88;24.55;;;7.30;99.90;;;;;;5019777;28;20388;-90
2022/01/14 10:22:24;;;;;;;36.60;24.65;;;7.30;99.90;;;;;;5011965;28;20489;-91
2022/01/14 10:24:58;;;;;;;33.67;23.25;;;7.30;99.90;;;;;;5017931;28;20070;-90
2022/01/14 10:27:51;;;;;;;36.30;23.67;;;7.40;99.90;;;;;;5002612;28;20083;-93
2022/01/14 10:30:24;;;;;;;38.88;23.45;;;7.40;99.90;;;;;;5000958;28;20180;-91
2022/01/14 10:33:22;;;;;;;30.55;21.30;;;7.50;99.90;;;;;;5006915;28;20792;-93
2022/01/14 10:35:51;;;;;;;36.22;21.20;;;7.50;99.90;;;;;;4992278;28;20067;-90
2022/01/14 10:38:19;;;;;;;34.58;21.30;;;7.50;99.90;;;;;;5004017;28;20871;-92
2022/01/14 10:40:48;;;;;;;29.50;20.73;;;7.60;99.90;;;;;;5016158;28;20904;-91
2022/01/14 10:43:16;;;;;;;34.30;20.90;;;7.50;99.90;;;;;;5003485;28;20048;-91
2022/01/14 10:45:45;;;;;;;31.48;21.00;;;7.60;99.90;;;;;;5001047;28;20047;-90
2022/01/14 10:48:14;;;;;;;32.50;20.35;;;7.60;99.90;;;;;;4998165;28;20087;-93
2022/01/14 10:50:48;;;;;;;36.80;20.98;;;7.60;99.90;;;;;;5025963;28;20052;-91
2022/01/14 10:53:27;;;;;;;32.13;19.33;;;7.60;99.90;;;;;;5015453;28;20043;-93
2022/01/14 10:56:09;;;;;;;32.53;19.83;;;7.60;99.90;;;;;;5010609;28;20043;-94
2022/01/14 10:58:49;;;;;;;34.00;19.98;;;7.70;99.90;;;;;;5007279;28;20367;-93
2022/01/14 11:01:20;;;;;;;32.33;19.88;;;7.70;99.90;;;;;;5017067;28;20541;-91
2022/01/14 11:03:57;;;;;;;28.23;18.73;;;7.70;99.90;;;;;;5027120;28;20044;-90
2022/01/14 11:06:32;;;;;;;29.92;18.27;;;7.70;99.90;;;;;;5001053;28;20485;-93
2022/01/14 11:09:07;;;;;;;26.85;18.30;;;7.80;99.90;;;;;;5009181;28;20058;-93
2022/01/14 11:11:38;;;;;;;29.83;18.13;;;7.80;99.90;;;;;;5005351;28;20044;-92
2022/01/14 11:14:05;;;;;;;30.10;18.00;;;7.80;99.90;;;;;;5007731;28;20079;-94
2022/01/14 11:16:35;;;;;;;34.15;19.67;;;7.80;99.90;;;;;;5010130;28;20043;-91
2022/01/14 11:19:03;;;;;;;28.67;17.70;;;7.80;99.90;;;;;;5026838;28;20275;-93
2022/01/14 11:24:23;;;;;;;30.90;18.10;;;7.80;99.90;;;;;;5031268;28;20081;-95
2022/01/14 11:26:52;;;;;;;31.60;17.65;;;7.80;99.90;;;;;;5008446;28;20047;-93
2022/01/14 11:29:32;;;;;;;30.27;17.67;;;7.90;99.90;;;;;;5003717;28;20390;-93
2022/01/14 11:32:05;;;;;;;26.90;16.55;;;7.90;99.90;;;;;;5005643;28;20043;-90
2022/01/14 11:34:39;;;;;;;24.50;13.57;;;7.90;99.90;;;;;;5045981;27;20463;-91
2022/01/14 11:37:08;;;;;;;21.25;14.40;;;7.90;99.90;;;;;;5001884;28;20367;-92
2022/01/14 11:39:39;;;;;;;25.13;15.50;;;7.90;99.90;;;;;;5024638;28;20104;-92
2022/01/14 11:42:12;;;;;;;26.90;16.13;;;8.00;99.90;;;;;;4997400;28;20772;-91
2022/01/14 11:44:42;;;;;;;27.02;15.85;;;7.90;99.90;;;;;;5013047;28;20048;-93
2022/01/14 11:47:44;;;;;;;30.67;16.13;;;7.90;99.90;;;;;;5007870;28;20378;-93
2022/01/14 11:50:22;;;;;;;24.00;15.27;;;7.90;99.90;;;;;;5026653;28;20040;-93
2022/01/14 11:52:49;;;;;;;26.42;14.00;;;7.90;99.90;;;;;;5023827;28;20116;-93
2022/01/14 11:55:21;;;;;;;24.60;12.90;;;7.90;99.90;;;;;;5005648;28;20048;-91
2022/01/14 11:57:55;;;;;;;24.05;12.70;;;7.90;99.90;;;;;;5022693;28;20325;-92
2022/01/14 12:00:42;;;;;;;22.85;12.85;;;7.90;99.90;;;;;;5024822;28;20345;-92
2022/01/14 12:03:10;;;;;;;18.50;11.52;;;7.90;99.90;;;;;;5008429;28;20059;-93
2022/01/14 12:05:54;;;;;;;20.02;11.20;;;7.90;99.90;;;;;;5005659;28;21077;-94
2022/01/14 12:08:30;;;;;;;21.27;11.38;;;7.90;99.90;;;;;;5004038;28;20569;-93
2022/01/14 12:14:45;;;;;;;20.40;11.32;;;8.00;99.90;;;;;;5007159;28;20048;-94
2022/01/14 12:17:13;;;;;;;18.30;11.03;;;8.00;99.90;;;;;;5014740;28;20055;-94
2022/01/14 12:19:39;;;;;;;19.48;12.00;;;8.00;99.90;;;;;;5002172;28;20044;-93
2022/01/14 12:22:06;;;;;;;21.13;10.95;;;8.00;99.90;;;;;;5001446;28;20742;-95
2022/01/14 12:24:39;;;;;;;19.65;10.32;;;8.00;99.90;;;;;;4992237;28;20124;-95
2022/01/14 12:27:08;;;;;;;20.23;10.32;;;8.00;99.90;;;;;;4982533;28;20056;-92
2022/01/14 12:29:38;;;;;;;20.23;10.57;;;8.00;99.90;;;;;;5021846;28;20071;-93
2022/01/14 12:32:30;;;;;;;22.65;11.00;;;7.90;99.90;;;;;;5014380;28;20040;-92
2022/01/14 12:34:56;;;;;;;17.27;10.73;;;7.90;99.90;;;;;;5012039;28;20084;-93
2022/01/14 12:37:39;;;;;;;18.77;10.18;;;8.00;99.90;;;;;;5003923;28;20135;-92
2022/01/14 12:40:19;;;;;;;20.48;10.15;;;8.00;99.90;;;;;;5021387;28;20410;-94
2022/01/14 12:42:53;;;;;;;19.52;10.10;;;8.00;99.90;;;;;;5017016;28;20058;-94
2022/01/14 12:45:51;;;;;;;23.67;10.40;;;8.00;99.90;;;;;;5011846;28;20166;-93
2022/01/14 12:48:45;;;;;;;16.73;9.45;;;8.00;99.90;;;;;;5009759;28;22048;-93
2022/01/14 12:51:20;;;;;;;17.98;9.30;;;8.00;99.90;;;;;;5009836;28;20067;-95
2022/01/14 12:54:04;;;;;;;17.10;9.57;;;8.00;99.90;;;;;;5013808;28;20848;-95
2022/01/14 12:56:32;;;;;;;18.35;9.63;;;8.00;99.90;;;;;;5012120;28;20825;-91
2022/01/14 12:59:06;;;;;;;18.70;9.07;;;8.00;99.90;;;;;;5011468;28;20050;-94
2022/01/14 13:01:50;;;;;;;;;;;8.00;99.90;;;;;;5034265;28;20199;-94
2022/01/14 13:04:26;;;;;;;18.30;8.60;;;8.00;99.90;;;;;;5004955;28;19968;-94
2022/01/14 13:06:59;;;;;;;21.08;9.07;;;8.00;99.90;;;;;;4996212;28;20127;-93
2022/01/14 13:09:34;;;;;;;16.33;8.97;;;8.00;99.90;;;;;;5011497;28;20361;-94
2022/01/14 13:12:29;;;;;;;17.65;9.00;;;8.00;99.90;;;;;;5010473;28;20052;-93
2022/01/14 13:15:17;;;;;;;19.65;8.52;;;8.00;99.90;;;;;;5005889;28;20151;-94
2022/01/14 13:18:14;;;;;;;15.40;8.45;;;8.00;99.90;;;;;;5007719;28;20053;-93
2022/01/14 13:20:32;;;;;;;17.92;8.68;;;8.00;99.90;;;;;;5025735;28;20075;-95
2022/01/14 13:22:59;;;;;;;16.25;8.48;;;8.00;99.90;;;;;;5029555;28;20385;-94
2022/01/14 13:25:33;;;;;;;14.82;8.07;;;8.00;99.90;;;;;;5006385;28;20180;-94
2022/01/14 13:28:02;;;;;;;20.42;8.32;;;8.10;99.90;;;;;;5024008;28;20050;-91
2022/01/14 13:30:37;;;;;;;17.95;8.63;;;8.00;99.90;;;;;;4998357;28;20544;-95
2022/01/14 13:33:09;;;;;;;16.48;7.47;;;8.10;99.90;;;;;;5004768;28;20050;-93
2022/01/14 13:35:46;;;;;;;17.00;7.82;;;8.00;99.90;;;;;;5027698;28;20148;-92
2022/01/14 13:38:25;;;;;;;21.95;9.82;;;8.10;99.90;;;;;;4984997;28;20260;-92
2022/01/14 13:40:56;;;;;;;21.15;7.85;;;8.10;99.90;;;;;;5028656;27;20059;-94
2022/01/14 13:43:44;;;;;;;15.70;7.47;;;8.00;99.90;;;;;;5005163;28;20045;-93
2022/01/14 13:46:18;;;;;;;16.27;7.53;;;8.10;99.90;;;;;;5030650;28;20050;-92
2022/01/14 13:48:48;;;;;;;15.57;7.68;;;8.10;99.90;;;;;;5012450;28;20358;-95
2022/01/14 13:51:19;;;;;;;14.90;7.35;;;8.10;99.90;;;;;;5008190;28;20071;-92
2022/01/14 13:53:49;;;;;;;17.60;7.10;;;8.00;99.90;;;;;;5008702;28;20048;-93
2022/01/14 13:56:21;;;;;;;14.38;7.47;;;8.00;99.90;;;;;;5021581;28;20380;-91
2022/01/14 13:58:54;;;;;;;15.60;8.45;;;8.00;99.90;;;;;;5010632;28;20044;-94
2022/01/14 14:01:27;;;;;;;18.08;7.40;;;8.00;99.90;;;;;;5008001;28;20048;-92
2022/01/14 14:04:10;;;;;;;16.38;7.68;;;8.00;99.90;;;;;;5024972;28;20254;-94
2022/01/14 14:06:44;;;;;;;18.58;9.00;;;8.00;99.90;;;;;;5027833;28;20036;-93
2022/01/14 14:12:09;;;;;;;21.13;8.02;;;8.00;99.90;;;;;;5008970;28;20075;-94